createdAt,value
2019-03-24T00:02:15.560Z,58.70
2019-03-24T00:04:47.152Z,58.70
2019-03-24T00:07:18.550Z,58.70
2019-03-24T00:09:50.088Z,58.60
2019-03-24T00:12:21.716Z,58.60
2019-03-24T00:14:53.734Z,58.60
2019-03-24T00:17:25.153Z,58.60
2019-03-24T00:19:56.632Z,58.60
2019-03-24T00:22:28.030Z,58.50
2019-03-24T00:24:59.687Z,58.30
2019-03-24T00:27:31.212Z,58.30
2019-03-24T00:30:02.711Z,58.00
2019-03-24T00:32:34.174Z,57.90
2019-03-24T00:35:05.964Z,57.60
2019-03-24T00:37:37.443Z,57.30
2019-03-24T00:40:09.190Z,57.00
2019-03-24T00:42:40.696Z,56.70
2019-03-24T00:45:12.603Z,56.70
2019-03-24T00:47:44.029Z,56.70
2019-03-24T00:50:15.736Z,56.00
2019-03-24T00:52:47.149Z,56.00
2019-03-24T00:55:18.719Z,55.90
2019-03-24T00:57:50.198Z,55.90
2019-03-24T01:00:28.191Z,55.90
2019-03-24T01:02:59.718Z,56.30
2019-03-24T01:05:31.297Z,55.70
2019-03-24T01:08:02.853Z,55.40
2019-03-24T01:10:35.607Z,55.10
2019-03-24T01:13:07.302Z,55.40
2019-03-24T01:15:47.767Z,55.20
2019-03-24T01:18:17.395Z,55.20
2019-03-24T01:20:49.129Z,55.40
2019-03-24T01:23:20.698Z,55.60
2019-03-24T01:25:52.461Z,55.60
2019-03-24T01:28:23.903Z,55.70
2019-03-24T01:30:55.536Z,55.80
2019-03-24T01:33:26.970Z,56.00
2019-03-24T01:35:58.629Z,56.10
2019-03-24T01:38:31.266Z,56.20
2019-03-24T01:41:02.945Z,56.30
2019-03-24T01:43:34.521Z,56.40
2019-03-24T01:46:06.067Z,56.40
2019-03-24T01:48:37.477Z,56.50
2019-03-24T01:51:09.006Z,56.60
2019-03-24T01:53:40.438Z,57.40
2019-03-24T01:56:12.125Z,56.90
2019-03-24T01:58:43.558Z,57.00
2019-03-24T02:01:15.096Z,57.10
2019-03-24T02:03:46.546Z,57.20
2019-03-24T02:06:18.036Z,57.50
2019-03-24T02:08:49.575Z,57.80
2019-03-24T02:11:21.146Z,58.00
2019-03-24T02:13:52.687Z,58.10
2019-03-24T02:16:24.190Z,58.30
2019-03-24T02:18:55.662Z,58.40
2019-03-24T02:21:29.685Z,58.40
2019-03-24T02:24:01.256Z,58.50
2019-03-24T02:26:32.919Z,58.50
2019-03-24T02:29:04.448Z,59.20
2019-03-24T02:31:35.946Z,58.50
2019-03-24T02:34:07.555Z,58.50
2019-03-24T02:36:39.068Z,58.50
2019-03-24T02:39:10.614Z,58.50
2019-03-24T02:41:42.187Z,58.60
2019-03-24T02:44:13.716Z,58.60
2019-03-24T02:46:45.158Z,58.60
2019-03-24T02:49:16.620Z,58.60
2019-03-24T02:51:48.232Z,58.70
2019-03-24T02:54:19.830Z,58.70
2019-03-24T02:56:51.585Z,58.70
2019-03-24T02:59:23.213Z,58.70
2019-03-24T03:01:54.839Z,58.70
2019-03-24T03:04:26.279Z,58.80
2019-03-24T03:06:57.747Z,58.80
2019-03-24T03:09:29.203Z,58.80
2019-03-24T03:12:00.739Z,58.80
2019-03-24T03:14:32.228Z,58.90
2019-03-24T03:17:03.696Z,58.80
2019-03-24T03:19:35.267Z,58.70
2019-03-24T03:22:07.025Z,58.60
2019-03-24T03:24:38.470Z,58.60
2019-03-24T03:27:09.950Z,58.70
2019-03-24T03:29:41.476Z,58.70
2019-03-24T03:32:12.984Z,58.70
2019-03-24T03:34:44.421Z,58.70
2019-03-24T03:37:15.938Z,58.80
2019-03-24T03:39:48.572Z,58.80
2019-03-24T03:42:20.155Z,58.80
2019-03-24T03:44:51.637Z,58.90
2019-03-24T03:47:23.096Z,58.90
2019-03-24T03:49:54.525Z,59.00
2019-03-24T03:52:26.070Z,59.10
2019-03-24T03:54:57.652Z,59.20
2019-03-24T03:57:29.254Z,59.30
2019-03-24T04:00:00.758Z,59.30
2019-03-24T04:02:32.224Z,59.50
2019-03-24T04:05:03.743Z,59.50
2019-03-24T04:07:35.205Z,59.70
2019-03-24T04:10:07.376Z,60.00
2019-03-24T04:12:39.018Z,60.20
2019-03-24T04:15:10.703Z,60.40
2019-03-24T04:17:42.257Z,60.60
2019-03-24T04:20:13.952Z,60.70
2019-03-24T04:22:45.659Z,61.00
2019-03-24T04:25:18.231Z,61.00
2019-03-24T04:27:49.757Z,61.10
2019-03-24T04:30:21.307Z,61.30
2019-03-24T04:32:52.776Z,61.60
2019-03-24T04:35:24.894Z,61.60
2019-03-24T04:37:56.561Z,61.80
2019-03-24T04:40:28.723Z,61.80
2019-03-24T04:43:00.502Z,61.70
2019-03-24T04:45:32.059Z,61.80
2019-03-24T04:48:03.589Z,61.60
2019-03-24T04:50:35.727Z,61.60
2019-03-24T04:53:07.398Z,61.90
2019-03-24T04:55:38.986Z,62.20
2019-03-24T04:58:10.771Z,62.50
2019-03-24T05:00:42.443Z,62.60
2019-03-24T05:03:14.066Z,63.40
2019-03-24T05:05:46.436Z,63.50
2019-03-24T05:08:18.252Z,62.70
2019-03-24T05:10:49.857Z,62.80
2019-03-24T05:13:21.321Z,62.80
2019-03-24T05:15:53.932Z,62.70
2019-03-24T05:18:25.390Z,62.60
2019-03-24T05:20:56.839Z,62.60
2019-03-24T05:23:31.347Z,62.60
2019-03-24T05:26:02.921Z,62.50
2019-03-24T05:28:34.401Z,62.40
2019-03-24T05:31:05.962Z,62.40
2019-03-24T05:33:37.538Z,62.40
2019-03-24T05:36:09.080Z,62.20
2019-03-24T05:38:40.639Z,62.00
2019-03-24T05:41:12.228Z,62.10
2019-03-24T05:43:45.267Z,62.00
2019-03-24T05:46:16.806Z,62.00
2019-03-24T05:48:48.405Z,62.50
2019-03-24T05:51:20.018Z,61.70
2019-03-24T05:53:51.486Z,61.60
2019-03-24T05:56:22.977Z,61.30
2019-03-24T05:58:54.455Z,60.90
2019-03-24T06:01:28.812Z,60.20
2019-03-24T06:04:00.504Z,60.30
2019-03-24T06:06:31.976Z,60.90
2019-03-24T06:09:04.943Z,60.20
2019-03-24T06:11:36.535Z,59.80
2019-03-24T06:14:08.114Z,59.50
2019-03-24T06:16:39.680Z,59.40
2019-03-24T06:19:11.292Z,59.50
2019-03-24T06:21:42.667Z,59.50
2019-03-24T06:24:14.839Z,59.20
2019-03-24T06:26:46.400Z,59.00
2019-03-24T06:29:17.965Z,58.80
2019-03-24T06:31:49.478Z,58.70
2019-03-24T06:34:21.480Z,58.80
2019-03-24T06:36:52.827Z,58.80
2019-03-24T06:39:24.346Z,58.90
2019-03-24T06:41:55.964Z,58.90
2019-03-24T06:44:27.510Z,58.60
2019-03-24T06:46:59.034Z,58.60
2019-03-24T06:49:30.492Z,59.50
2019-03-24T06:52:01.915Z,58.50
2019-03-24T06:54:33.401Z,58.70
2019-03-24T06:57:04.850Z,58.70
2019-03-24T06:59:36.400Z,58.30
2019-03-24T07:02:08.070Z,58.10
2019-03-24T07:04:39.727Z,58.20
2019-03-24T07:07:11.311Z,58.10
2019-03-24T07:09:42.784Z,58.20
2019-03-24T07:12:14.435Z,58.50
2019-03-24T07:14:45.993Z,58.30
2019-03-24T07:17:17.506Z,58.40
2019-03-24T07:19:49.027Z,58.40
2019-03-24T07:22:20.447Z,58.10
2019-03-24T07:24:52.035Z,58.20
2019-03-24T07:27:23.452Z,57.80
2019-03-24T07:29:55.119Z,57.70
2019-03-24T07:32:26.669Z,57.40
2019-03-24T07:34:58.332Z,57.30
2019-03-24T07:37:29.875Z,57.30
2019-03-24T07:40:01.371Z,56.60
2019-03-24T07:42:33.801Z,56.50
2019-03-24T07:45:05.725Z,56.10
2019-03-24T07:47:37.889Z,55.70
2019-03-24T07:50:10.013Z,55.40
2019-03-24T07:52:41.453Z,55.70
2019-03-24T07:55:14.265Z,55.90
2019-03-24T07:57:45.818Z,55.70
2019-03-24T08:00:29.335Z,56.00
2019-03-24T08:03:00.805Z,56.10
2019-03-24T08:05:32.423Z,55.70
2019-03-24T08:08:04.077Z,55.40
2019-03-24T08:10:35.575Z,54.70
2019-03-24T08:13:07.391Z,54.80
2019-03-24T08:15:39.088Z,54.00
2019-03-24T08:18:10.567Z,54.00
2019-03-24T08:20:42.252Z,54.00
2019-03-24T08:23:13.838Z,53.90
2019-03-24T08:25:45.487Z,54.10
2019-03-24T08:28:17.274Z,53.90
2019-03-24T08:30:48.840Z,53.50
2019-03-24T08:33:20.557Z,53.10
2019-03-24T08:35:52.256Z,52.40
2019-03-24T08:38:23.645Z,52.30
2019-03-24T08:40:55.325Z,52.20
2019-03-24T08:43:27.961Z,51.40
2019-03-24T08:46:00.579Z,50.80
2019-03-24T08:48:40.940Z,50.20
2019-03-24T08:51:07.219Z,49.30
2019-03-24T08:53:38.689Z,48.90
2019-03-24T08:56:10.412Z,48.30
2019-03-24T08:58:42.085Z,48.00
2019-03-24T09:01:17.772Z,47.90
2019-03-24T09:03:49.469Z,48.00
2019-03-24T09:06:22.325Z,47.80
2019-03-24T09:08:53.913Z,48.60
2019-03-24T09:11:31.198Z,47.80
2019-03-24T09:13:58.567Z,47.00
2019-03-24T09:16:30.030Z,47.30
2019-03-24T09:19:01.620Z,47.30
2019-03-24T09:21:33.219Z,46.80
2019-03-24T09:24:05.225Z,45.90
2019-03-24T09:26:37.008Z,45.70
2019-03-24T09:29:08.591Z,46.10
2019-03-24T09:31:40.366Z,45.40
2019-03-24T09:34:11.935Z,45.40
2019-03-24T09:36:43.480Z,43.70
2019-03-24T09:39:15.162Z,42.30
2019-03-24T09:41:46.815Z,42.40
2019-03-24T09:44:18.735Z,42.90
2019-03-24T09:46:50.431Z,42.40
2019-03-24T09:49:22.286Z,42.80
2019-03-24T09:51:54.016Z,42.90
2019-03-24T09:54:25.855Z,42.60
2019-03-24T09:56:57.527Z,42.10
2019-03-24T09:59:29.134Z,41.70
2019-03-24T10:02:00.988Z,41.80
2019-03-24T10:04:32.738Z,40.60
2019-03-24T10:07:04.351Z,40.10
2019-03-24T10:09:35.868Z,40.60
2019-03-24T10:12:07.579Z,40.10
2019-03-24T10:14:39.429Z,40.10
2019-03-24T10:17:12.059Z,40.20
2019-03-24T10:19:43.775Z,40.30
2019-03-24T10:22:15.694Z,40.30
2019-03-24T10:24:47.307Z,40.00
2019-03-24T10:27:18.959Z,40.20
2019-03-24T10:29:50.680Z,40.20
2019-03-24T10:32:22.200Z,40.10
2019-03-24T10:34:53.690Z,40.40
2019-03-24T10:37:25.366Z,40.20
2019-03-24T10:39:56.834Z,40.30
2019-03-24T10:42:28.489Z,39.90
2019-03-24T10:44:59.895Z,40.10
2019-03-24T10:47:31.532Z,39.40
2019-03-24T10:50:03.116Z,38.00
2019-03-24T10:52:34.816Z,37.80
2019-03-24T10:55:07.605Z,37.50
2019-03-24T10:57:39.493Z,38.10
2019-03-24T11:00:12.611Z,38.60
2019-03-24T11:02:44.252Z,38.80
2019-03-24T11:05:17.086Z,37.60
2019-03-24T11:07:48.672Z,37.60
2019-03-24T11:10:20.133Z,38.00
2019-03-24T11:12:51.931Z,36.60
2019-03-24T11:15:23.395Z,36.60
2019-03-24T11:17:55.032Z,36.90
2019-03-24T11:20:27.648Z,38.00
2019-03-24T11:22:59.362Z,36.80
2019-03-24T11:25:30.906Z,36.50
2019-03-24T11:28:02.472Z,36.70
2019-03-24T11:30:34.221Z,37.60
2019-03-24T11:33:06.089Z,37.50
2019-03-24T11:35:37.906Z,36.70
2019-03-24T11:38:09.536Z,37.40
2019-03-24T11:40:41.120Z,37.00
2019-03-24T11:43:12.686Z,37.10
2019-03-24T11:45:44.251Z,37.20
2019-03-24T11:48:16.042Z,38.60
2019-03-24T11:50:47.533Z,39.10
2019-03-24T11:53:19.081Z,39.90
2019-03-24T11:55:50.651Z,40.60
2019-03-24T11:58:23.165Z,40.50
2019-03-24T12:00:54.740Z,40.80
2019-03-24T12:03:26.471Z,41.10
2019-03-24T12:05:58.160Z,41.30
2019-03-24T12:08:30.020Z,41.70
2019-03-24T12:11:01.684Z,41.80
2019-03-24T12:13:33.191Z,41.20
2019-03-24T12:16:04.807Z,40.70
2019-03-24T12:18:36.499Z,40.80
2019-03-24T12:21:08.088Z,41.20
2019-03-24T12:23:39.700Z,40.90
2019-03-24T12:26:11.393Z,40.90
2019-03-24T12:28:43.062Z,41.00
2019-03-24T12:31:14.615Z,41.00
2019-03-24T12:33:46.199Z,40.70
2019-03-24T12:36:17.956Z,39.90
2019-03-24T12:38:49.626Z,40.80
2019-03-24T12:41:21.215Z,40.20
2019-03-24T12:43:52.800Z,40.20
2019-03-24T12:46:24.461Z,39.30
2019-03-24T12:48:55.951Z,39.80
2019-03-24T12:51:27.390Z,39.00
2019-03-24T12:53:58.963Z,38.50
2019-03-24T12:56:30.592Z,38.60
2019-03-24T12:59:02.185Z,38.20
2019-03-24T13:01:33.779Z,37.40
2019-03-24T13:04:05.551Z,37.30
2019-03-24T13:06:37.000Z,37.30
2019-03-24T13:09:09.326Z,38.20
2019-03-24T13:11:40.751Z,38.30
2019-03-24T13:14:12.324Z,37.90
2019-03-24T13:16:43.924Z,38.90
2019-03-24T13:19:15.356Z,38.70
2019-03-24T13:21:46.967Z,38.10
2019-03-24T13:24:18.523Z,37.50
2019-03-24T13:26:50.136Z,38.40
2019-03-24T13:29:21.629Z,38.60
2019-03-24T13:31:53.194Z,38.30
2019-03-24T13:34:24.702Z,37.90
2019-03-24T13:36:57.160Z,36.50
2019-03-24T13:39:29.659Z,36.00
2019-03-24T13:42:01.099Z,36.20
2019-03-24T13:44:32.637Z,36.40
2019-03-24T13:47:04.033Z,35.60
2019-03-24T13:49:36.192Z,35.30
2019-03-24T13:52:08.086Z,34.60
2019-03-24T13:54:40.002Z,33.70
2019-03-24T13:57:11.794Z,33.10
2019-03-24T13:59:43.302Z,32.10
2019-03-24T14:02:14.990Z,30.80
2019-03-24T14:04:47.546Z,29.60
2019-03-24T14:07:19.213Z,29.30
2019-03-24T14:09:50.842Z,28.50
2019-03-24T14:12:22.254Z,28.40
2019-03-24T14:14:53.788Z,28.50
2019-03-24T14:17:25.336Z,27.00
2019-03-24T14:19:57.012Z,26.30
2019-03-24T14:22:28.587Z,25.50
2019-03-24T14:25:00.562Z,24.70
2019-03-24T14:27:32.051Z,23.80
2019-03-24T14:30:03.731Z,23.60
2019-03-24T14:32:35.241Z,23.30
2019-03-24T14:35:07.168Z,22.90
2019-03-24T14:37:38.836Z,23.70
2019-03-24T14:40:12.075Z,25.00
2019-03-24T14:42:43.730Z,26.10
2019-03-24T14:45:15.633Z,26.80
2019-03-24T14:47:47.234Z,28.30
2019-03-24T14:50:19.108Z,29.50
2019-03-24T14:52:51.587Z,30.10
2019-03-24T14:55:23.636Z,30.80
2019-03-24T14:57:55.146Z,32.20
2019-03-24T15:00:36.161Z,32.90
2019-03-24T15:03:08.398Z,33.90
2019-03-24T15:05:40.196Z,34.90
2019-03-24T15:08:13.332Z,35.50
2019-03-24T15:10:45.260Z,35.70
2019-03-24T15:13:16.977Z,36.50
2019-03-24T15:15:48.653Z,37.00
2019-03-24T15:18:20.218Z,37.10
2019-03-24T15:20:52.936Z,37.10
2019-03-24T15:23:24.654Z,36.90
2019-03-24T15:25:56.396Z,36.60
2019-03-24T15:28:28.011Z,34.90
2019-03-24T15:31:00.881Z,31.70
2019-03-24T15:33:32.688Z,28.40
2019-03-24T15:36:04.369Z,26.20
2019-03-24T15:38:35.873Z,25.10
2019-03-24T15:41:08.558Z,24.30
2019-03-24T15:43:43.210Z,24.90
2019-03-24T15:46:14.929Z,24.40
2019-03-24T15:48:46.527Z,23.30
2019-03-24T15:51:18.196Z,23.90
2019-03-24T15:53:49.871Z,24.30
2019-03-24T15:56:21.522Z,24.20
2019-03-24T15:58:52.995Z,24.50
2019-03-24T16:01:24.569Z,25.30
2019-03-24T16:03:56.114Z,26.20
2019-03-24T16:06:27.807Z,26.30
2019-03-24T16:09:10.362Z,27.10
2019-03-24T16:11:52.120Z,27.20
2019-03-24T16:14:35.154Z,27.00
2019-03-24T16:17:16.301Z,26.90
2019-03-24T16:19:58.109Z,27.50
2019-03-24T16:22:32.571Z,28.20
2019-03-24T16:25:04.394Z,29.90
2019-03-24T16:27:36.488Z,31.90
2019-03-24T16:30:11.087Z,33.70
2019-03-24T16:32:45.894Z,34.90
2019-03-24T16:35:19.901Z,36.00
2019-03-24T16:37:52.234Z,36.50
2019-03-24T16:40:25.285Z,37.10
2019-03-24T16:42:59.347Z,37.50
2019-03-24T16:45:33.307Z,38.00
2019-03-24T16:48:05.744Z,39.10
2019-03-24T16:50:38.972Z,39.00
2019-03-24T16:53:13.595Z,39.70
2019-03-24T16:55:49.713Z,40.30
2019-03-24T16:58:23.742Z,41.00
2019-03-24T17:00:56.124Z,41.50
2019-03-24T17:03:28.517Z,42.40
2019-03-24T17:06:04.325Z,42.80
2019-03-24T17:08:38.184Z,43.20
2019-03-24T17:11:12.142Z,43.60
2019-03-24T17:13:46.901Z,44.00
2019-03-24T17:16:18.843Z,44.20
2019-03-24T17:18:52.096Z,44.70
2019-03-24T17:21:35.213Z,45.00
2019-03-24T17:24:09.494Z,45.10
2019-03-24T17:26:41.094Z,45.10
2019-03-24T17:29:13.187Z,45.30
2019-03-24T17:31:45.971Z,45.50
2019-03-24T17:37:25.948Z,45.80
2019-03-24T17:39:57.774Z,45.90
2019-03-24T17:42:29.982Z,46.10
2019-03-24T17:45:02.286Z,46.30
2019-03-24T17:47:34.806Z,46.50
2019-03-24T17:50:08.644Z,46.80
2019-03-24T17:52:41.125Z,47.00
2019-03-24T17:55:14.212Z,47.20
2019-03-24T17:57:46.530Z,48.00
2019-03-24T18:00:21.635Z,48.30
2019-03-24T18:02:53.266Z,48.30
2019-03-24T18:05:24.829Z,48.40
2019-03-24T18:07:56.531Z,48.70
2019-03-24T18:10:28.580Z,48.80
2019-03-24T18:13:00.236Z,48.90
2019-03-24T18:15:32.360Z,49.70
2019-03-24T18:18:04.675Z,49.00
2019-03-24T18:20:37.813Z,49.10
2019-03-24T18:23:10.258Z,49.20
2019-03-24T18:25:42.536Z,49.20
2019-03-24T18:28:14.906Z,49.20
2019-03-24T18:30:47.799Z,49.20
2019-03-24T18:33:20.296Z,49.10
2019-03-24T18:35:52.544Z,49.10
2019-03-24T18:38:24.723Z,49.10
2019-03-24T18:40:56.309Z,49.10
2019-03-24T18:43:28.585Z,49.00
2019-03-24T18:46:00.814Z,49.10
2019-03-24T18:48:33.535Z,49.00
2019-03-24T18:51:06.136Z,49.20
2019-03-24T18:53:38.240Z,49.30
2019-03-24T18:56:10.613Z,49.50
2019-03-24T18:58:42.936Z,49.70
2019-03-24T19:01:14.950Z,49.80
2019-03-24T19:03:46.816Z,50.00
2019-03-24T19:06:18.815Z,49.90
2019-03-24T19:08:51.595Z,50.00
2019-03-24T19:11:23.496Z,50.20
2019-03-24T19:13:55.622Z,50.20
2019-03-24T19:16:27.512Z,50.40
2019-03-24T19:21:50.704Z,51.20
2019-03-24T19:24:22.293Z,51.50
2019-03-24T19:26:53.918Z,51.80
2019-03-24T19:29:25.474Z,51.90
2019-03-24T19:31:57.245Z,52.10
2019-03-24T19:34:28.996Z,52.20
2019-03-24T19:37:00.745Z,52.20
2019-03-24T19:39:32.483Z,52.30
2019-03-24T19:42:04.393Z,52.50
2019-03-24T19:44:36.103Z,52.80
2019-03-24T19:47:07.764Z,53.00
2019-03-24T19:49:40.620Z,53.20
2019-03-24T19:52:12.225Z,53.40
2019-03-24T19:54:44.186Z,53.60
2019-03-24T19:57:15.777Z,53.60
2019-03-24T19:59:47.422Z,53.70
2019-03-24T20:02:19.082Z,54.00
2019-03-24T20:04:51.242Z,54.10
2019-03-24T20:07:22.861Z,54.20
2019-03-24T20:09:54.513Z,54.30
2019-03-24T20:12:25.959Z,54.40
2019-03-24T20:15:00.580Z,54.80
2019-03-24T20:17:32.388Z,54.80
2019-03-24T20:20:04.129Z,55.10
2019-03-24T20:22:35.733Z,55.60
2019-03-24T20:25:07.775Z,55.80
2019-03-24T20:27:39.578Z,55.90
2019-03-24T20:30:12.877Z,56.20
2019-03-24T20:32:44.694Z,56.40
2019-03-24T20:35:16.455Z,56.60
2019-03-24T20:37:48.237Z,56.80
2019-03-24T20:40:21.083Z,56.80
2019-03-24T20:42:53.004Z,56.90
2019-03-24T20:45:24.654Z,57.00
2019-03-24T20:47:56.269Z,57.20
2019-03-24T20:50:28.025Z,57.60
2019-03-24T20:53:08.719Z,57.60
2019-03-24T20:55:34.459Z,57.70
2019-03-24T20:58:06.415Z,57.80
2019-03-24T21:00:38.943Z,57.90
2019-03-24T21:03:10.869Z,57.90
2019-03-24T21:05:42.441Z,58.00
2019-03-24T21:08:13.916Z,58.20
2019-03-24T21:10:45.668Z,58.30
2019-03-24T21:13:17.401Z,58.30
2019-03-24T21:15:49.293Z,58.30
2019-03-24T21:18:21.023Z,58.30
2019-03-24T21:20:52.821Z,58.40
2019-03-24T21:23:29.531Z,58.50
2019-03-24T21:25:57.916Z,58.60
2019-03-24T21:28:29.456Z,58.70
2019-03-24T21:31:00.970Z,58.80
2019-03-24T21:33:32.604Z,58.80
2019-03-24T21:36:04.447Z,58.90
2019-03-24T21:38:36.113Z,59.00
2019-03-24T21:41:07.782Z,59.20
2019-03-24T21:43:39.533Z,59.70
2019-03-24T21:46:11.301Z,59.60
2019-03-24T21:48:42.869Z,59.70
2019-03-24T21:51:14.538Z,59.60
2019-03-24T21:53:45.997Z,59.60
2019-03-24T21:56:17.752Z,59.50
2019-03-24T21:58:49.338Z,59.70
2019-03-24T22:01:21.250Z,60.00
2019-03-24T22:03:52.907Z,60.60
2019-03-24T22:06:24.382Z,60.60
2019-03-24T22:08:58.324Z,60.70
2019-03-24T22:11:30.140Z,60.70
2019-03-24T22:14:01.792Z,59.80
2019-03-24T22:16:33.614Z,60.30
2019-03-24T22:19:05.194Z,60.20
2019-03-24T22:21:37.197Z,60.40
2019-03-24T22:24:08.809Z,60.40
2019-03-24T22:26:40.502Z,60.60
2019-03-24T22:29:11.993Z,60.40
2019-03-24T22:31:43.414Z,60.40
2019-03-24T22:34:14.917Z,60.30
2019-03-24T22:36:46.541Z,60.30
2019-03-24T22:39:21.272Z,60.40
2019-03-24T22:41:52.852Z,60.20
2019-03-24T22:44:24.411Z,60.30
2019-03-24T22:46:56.106Z,60.30
2019-03-24T22:49:27.978Z,60.40
2019-03-24T22:52:07.165Z,60.50
2019-03-24T22:54:32.993Z,60.50
2019-03-24T22:57:04.703Z,60.50
2019-03-24T22:59:37.390Z,60.60
2019-03-24T23:02:09.235Z,60.60
2019-03-24T23:04:40.958Z,60.90
2019-03-24T23:07:12.610Z,61.20
2019-03-24T23:09:44.177Z,61.30
2019-03-24T23:12:15.839Z,61.40
2019-03-24T23:14:47.408Z,61.50
2019-03-24T23:17:19.153Z,61.60
2019-03-24T23:19:50.588Z,61.50
2019-03-24T23:22:22.283Z,61.50
2019-03-24T23:24:53.761Z,61.60
2019-03-24T23:27:25.493Z,61.70
2019-03-24T23:29:57.083Z,61.60
2019-03-24T23:32:28.719Z,61.70
2019-03-24T23:35:00.405Z,61.60
2019-03-24T23:37:32.027Z,61.40
2019-03-24T23:40:03.799Z,61.40
2019-03-24T23:42:35.506Z,61.30
2019-03-24T23:45:07.665Z,61.30
2019-03-24T23:47:39.161Z,62.10
2019-03-24T23:50:11.053Z,61.50
2019-03-24T23:52:42.726Z,61.50
2019-03-24T23:55:14.481Z,61.60
2019-03-24T23:57:45.964Z,61.70
